Time;durP1;ratioP1;P1;durP2;ratioP2;P2;SDS_P1;SDS_P2;PMS_P1;PMS_P2;Temp;Humidity;BMP_temperature;BMP_pressure;BME280_temperature;BME280_humidity;BME280_pressure;Samples;Min_cycle;Max_cycle;Signal;HPM_P1;HPM_P2
2023/11/25 00:00:55;;;;;;;0.73;0.40;;;;;;;2.34;100.00;97623.94;5094245;28;20204;-80
2023/11/25 00:03:22;;;;;;;1.30;0.70;;;;;;;2.30;100.00;97616.66;5109480;28;20284;-81
2023/11/25 00:05:49;;;;;;;0.93;0.60;;;;;;;2.19;100.00;97629.53;5097173;28;20242;-79
2023/11/25 00:08:16;;;;;;;1.00;0.53;;;;;;;2.14;100.00;97621.47;5096151;28;20221;-79
2023/11/25 00:10:43;;;;;;;1.47;0.60;;;;;;;2.07;100.00;97622.50;5102950;28;20203;-80
2023/11/25 00:13:11;;;;;;;0.70;0.40;;;;;;;2.14;100.00;97623.28;5093669;28;20210;-79
2023/11/25 00:15:38;;;;;;;0.87;0.40;;;;;;;2.10;100.00;97616.81;5094662;28;20203;-82
2023/11/25 00:18:06;;;;;;;1.50;0.60;;;;;;;2.03;100.00;97597.56;5102173;28;20184;-80
2023/11/25 00:20:36;;;;;;;1.17;0.70;;;;;;;1.93;100.00;97587.47;5102663;28;20230;-80
2023/11/25 00:23:03;;;;;;;1.37;0.60;;;;;;;2.17;100.00;97586.69;5109307;28;20200;-83
2023/11/25 00:25:30;;;;;;;1.50;0.60;;;;;;;2.27;100.00;97583.56;5090892;28;20192;-80
2023/11/25 00:27:57;;;;;;;1.27;0.70;;;;;;;2.25;100.00;97568.91;5101479;28;20264;-80
2023/11/25 00:30:24;;;;;;;1.93;0.70;;;;;;;2.21;100.00;97560.63;5105466;28;20265;-80
2023/11/25 00:32:51;;;;;;;1.73;0.63;;;;;;;2.15;100.00;97546.44;5101057;28;20316;-80
2023/11/25 00:35:18;;;;;;;1.97;0.63;;;;;;;2.19;100.00;97542.34;5105550;28;20219;-81
2023/11/25 00:37:45;;;;;;;1.17;0.83;;;;;;;2.06;100.00;97544.28;5111038;28;20190;-79
2023/11/25 00:40:16;;;;;;;1.33;0.57;;;;;;;1.98;100.00;97534.81;5092547;28;20211;-81
2023/11/25 00:42:43;;;;;;;0.80;0.57;;;;;;;2.16;100.00;97531.41;5084485;28;20256;-80
2023/11/25 00:45:10;;;;;;;0.80;0.60;;;;;;;2.03;100.00;97531.53;5101721;28;20192;-79
2023/11/25 00:47:41;;;;;;;0.97;0.67;;;;;;;2.08;100.00;97527.22;5079477;28;20197;-79
2023/11/25 00:50:11;;;;;;;1.00;0.70;;;;;;;2.11;100.00;97515.41;5096070;28;20285;-78
2023/11/25 00:52:38;;;;;;;0.87;0.70;;;;;;;2.18;100.00;97516.97;5076756;28;20226;-80
2023/11/25 00:55:06;;;;;;;1.13;0.50;;;;;;;2.19;100.00;97517.78;5082557;28;20196;-81
2023/11/25 00:57:34;;;;;;;0.50;0.50;;;;;;;2.16;100.00;97537.50;5092576;28;20260;-80
2023/11/25 01:00:04;;;;;;;0.87;0.60;;;;;;;2.14;100.00;97522.91;5101044;28;20259;-81
2023/11/25 01:02:31;;;;;;;0.50;0.50;;;;;;;2.11;100.00;97541.81;5076917;28;20216;-84
2023/11/25 01:04:57;;;;;;;0.60;0.57;;;;;;;2.11;100.00;97539.97;5087061;28;20226;-80
2023/11/25 01:07:24;;;;;;;1.43;0.50;;;;;;;1.96;100.00;97536.84;5087773;28;20200;-80
2023/11/25 01:09:51;;;;;;;0.40;0.40;;;;;;;1.97;100.00;97546.41;5109308;28;20233;-80
2023/11/25 01:12:18;;;;;;;0.47;0.40;;;;;;;1.91;100.00;97551.75;5093146;28;20260;-80
2023/11/25 01:14:44;;;;;;;1.17;0.50;;;;;;;1.91;100.00;97543.81;5086394;28;20214;-79
2023/11/25 01:17:11;;;;;;;0.70;0.40;;;;;;;1.90;100.00;97543.00;5106527;28;20670;-80
2023/11/25 01:19:38;;;;;;;0.30;0.30;;;;;;;1.87;100.00;97546.06;5100778;28;20211;-82
2023/11/25 01:22:05;;;;;;;0.97;0.50;;;;;;;1.87;100.00;97527.56;5082999;28;20254;-80
2023/11/25 01:24:32;;;;;;;0.77;0.50;;;;;;;1.88;100.00;97526.56;5095103;28;20679;-81
2023/11/25 01:26:59;;;;;;;0.40;0.40;;;;;;;1.76;100.00;97521.19;5097097;28;20713;-82
2023/11/25 01:29:26;;;;;;;0.50;0.40;;;;;;;1.78;100.00;97534.16;5096941;28;20219;-79
2023/11/25 01:31:52;;;;;;;0.40;0.40;;;;;;;1.80;100.00;97541.84;5104495;28;20202;-80
2023/11/25 01:34:20;;;;;;;0.50;0.50;;;;;;;1.72;100.00;97537.66;5100404;28;20205;-79
2023/11/25 01:36:47;;;;;;;0.80;0.40;;;;;;;1.69;100.00;97538.88;5098629;28;20271;-80
2023/11/25 01:39:14;;;;;;;0.53;0.47;;;;;;;1.72;100.00;97527.09;5092226;28;20196;-80
2023/11/25 01:41:43;;;;;;;0.47;0.40;;;;;;;1.81;100.00;97527.66;5084536;28;20216;-83
2023/11/25 01:44:12;;;;;;;0.50;0.50;;;;;;;1.86;100.00;97520.69;5088092;28;20767;-80
2023/11/25 01:46:42;;;;;;;0.53;0.50;;;;;;;1.73;100.00;97521.59;5096355;28;20180;-79
2023/11/25 01:49:13;;;;;;;1.33;0.57;;;;;;;1.61;100.00;97533.88;5090701;28;20695;-80
2023/11/25 01:51:44;;;;;;;1.17;0.80;;;;;;;1.62;100.00;97537.31;5097424;28;20188;-80
2023/11/25 01:54:15;;;;;;;1.40;0.50;;;;;;;1.62;100.00;97540.78;5073129;28;20230;-81
2023/11/25 01:56:45;;;;;;;0.77;0.70;;;;;;;1.67;100.00;97543.59;5088483;28;20700;-82
2023/11/25 01:59:15;;;;;;;1.13;0.70;;;;;;;1.63;100.00;97538.94;5082939;28;20659;-82
2023/11/25 02:01:43;;;;;;;0.90;0.80;;;;;;;1.83;100.00;97550.16;5098228;28;20234;-80
2023/11/25 02:04:10;;;;;;;1.53;0.70;;;;;;;1.71;100.00;97538.69;5102587;28;20184;-80
2023/11/25 02:06:37;;;;;;;1.60;0.80;;;;;;;1.78;100.00;97539.44;5100874;28;20192;-81
2023/11/25 02:09:04;;;;;;;0.90;0.70;;;;;;;1.65;100.00;97542.97;5081939;28;20207;-82
2023/11/25 02:11:31;;;;;;;1.47;0.70;;;;;;;1.63;100.00;97544.22;5108677;28;20231;-80
2023/11/25 02:13:58;;;;;;;0.77;0.60;;;;;;;1.64;100.00;97554.53;5102474;28;20218;-81
2023/11/25 02:16:25;;;;;;;0.80;0.60;;;;;;;1.77;100.00;97546.53;5105995;28;20282;-81
2023/11/25 02:18:53;;;;;;;0.87;0.60;;;;;;;1.73;100.00;97548.00;5079576;28;20234;-80
2023/11/25 02:21:20;;;;;;;0.60;0.60;;;;;;;1.61;100.00;97541.78;5100370;28;20272;-80
2023/11/25 02:23:47;;;;;;;0.60;0.60;;;;;;;1.79;100.00;97541.06;5088478;28;20199;-80
2023/11/25 02:26:14;;;;;;;1.00;0.60;;;;;;;1.71;100.00;97551.88;5100321;28;20655;-80
2023/11/25 02:28:41;;;;;;;0.70;0.67;;;;;;;1.65;100.00;97542.97;5102908;28;20267;-80
2023/11/25 02:31:08;;;;;;;1.67;0.50;;;;;;;1.77;100.00;97554.47;5095110;28;20216;-81
2023/11/25 02:33:35;;;;;;;0.80;0.70;;;;;;;1.76;100.00;97558.13;5085998;28;20245;-82
2023/11/25 02:36:02;;;;;;;0.63;0.57;;;;;;;1.76;100.00;97552.06;5100248;28;20229;-79
2023/11/25 02:38:31;;;;;;;0.60;0.60;;;;;;;1.68;100.00;97544.41;5104698;28;20219;-81
2023/11/25 02:40:58;;;;;;;1.00;0.70;;;;;;;1.73;100.00;97544.53;5100608;28;20293;-78
2023/11/25 02:43:26;;;;;;;0.47;0.47;;;;;;;1.85;100.00;97527.00;5109636;28;20199;-79
2023/11/25 02:45:53;;;;;;;1.27;1.17;;;;;;;1.98;100.00;97544.56;5076715;28;20209;-78
2023/11/25 02:48:20;;;;;;;0.57;0.57;;;;;;;1.83;100.00;97544.06;5091474;28;20245;-80
2023/11/25 02:50:47;;;;;;;0.50;0.50;;;;;;;1.93;100.00;97537.28;5095257;28;20188;-78
2023/11/25 02:53:14;;;;;;;0.87;0.60;;;;;;;1.91;100.00;97557.03;5094357;28;20199;-82
2023/11/25 02:55:42;;;;;;;0.67;0.60;;;;;;;1.87;100.00;97555.84;5106231;28;20244;-80
2023/11/25 02:58:11;;;;;;;0.83;0.60;;;;;;;1.78;100.00;97553.44;5102848;28;20207;-79
2023/11/25 03:00:41;;;;;;;0.97;0.63;;;;;;;1.75;100.00;97561.00;5100552;28;20267;-80
2023/11/25 03:03:12;;;;;;;1.00;0.70;;;;;;;1.74;100.00;97554.91;5107806;28;20196;-79
2023/11/25 03:05:42;;;;;;;0.90;0.70;;;;;;;1.57;100.00;97564.34;5082677;28;20238;-79
2023/11/25 03:08:17;;;;;;;0.60;0.53;;;;;;;1.46;100.00;97557.09;5086436;28;20188;-80
2023/11/25 03:10:47;;;;;;;0.80;0.60;;;;;;;1.48;100.00;97559.53;5109784;28;20191;-81
2023/11/25 03:13:15;;;;;;;1.10;0.63;;;;;;;1.38;100.00;97552.09;5097001;28;20245;-79
2023/11/25 03:15:42;;;;;;;0.77;0.60;;;;;;;1.44;100.00;97558.34;5093845;28;20684;-80
2023/11/25 03:18:09;;;;;;;0.80;0.67;;;;;;;1.40;100.00;97557.16;5100053;28;20190;-80
2023/11/25 03:20:37;;;;;;;1.23;0.60;;;;;;;1.40;100.00;97549.25;5087408;28;20195;-80
2023/11/25 03:23:04;;;;;;;1.47;0.83;;;;;;;1.36;100.00;97555.94;5078969;28;20287;-82
2023/11/25 03:25:33;;;;;;;0.80;0.80;;;;;;;1.25;100.00;97557.44;5096580;28;20215;-79
2023/11/25 03:28:05;;;;;;;0.70;0.60;;;;;;;1.11;100.00;97561.97;5099366;28;20199;-80
2023/11/25 03:30:33;;;;;;;1.30;0.70;;;;;;;1.05;100.00;97561.97;5100017;28;20712;-78
2023/11/25 03:33:00;;;;;;;1.57;0.80;;;;;;;1.07;100.00;97568.69;5101086;28;20195;-82
2023/11/25 03:35:27;;;;;;;1.90;0.70;;;;;;;1.18;100.00;97570.63;5096863;28;20192;-80
2023/11/25 03:37:54;;;;;;;1.40;0.70;;;;;;;1.17;100.00;97569.00;5097371;28;20199;-78
2023/11/25 03:40:21;;;;;;;1.60;0.57;;;;;;;1.25;100.00;97578.53;5098462;28;20250;-81
2023/11/25 03:42:49;;;;;;;1.07;0.70;;;;;;;1.43;100.00;97580.47;5077660;28;20220;-80
2023/11/25 03:45:16;;;;;;;1.23;0.80;;;;;;;1.33;100.00;97576.47;5096955;28;20211;-79
2023/11/25 03:47:44;;;;;;;0.90;0.70;;;;;;;1.25;100.00;97594.38;5100978;28;20204;-79
2023/11/25 03:50:12;;;;;;;1.73;0.83;;;;;;;1.61;100.00;97588.50;5058424;28;20665;-79
2023/11/25 03:52:40;;;;;;;0.97;0.70;;;;;;;1.54;100.00;97593.00;5066412;28;20665;-79
2023/11/25 03:55:09;;;;;;;0.90;0.70;;;;;;;1.54;100.00;97600.94;5055940;28;20292;-80
2023/11/25 03:57:38;;;;;;;0.90;0.73;;;;;;;1.60;100.00;97595.59;5071828;28;20197;-80
2023/11/25 04:00:14;;;;;;;1.73;0.80;;;;;;;1.52;100.00;97595.03;5053008;28;20196;-79
2023/11/25 04:02:46;;;;;;;1.33;0.90;;;;;;;1.42;100.00;97606.03;5073303;28;20248;-78
2023/11/25 04:05:14;;;;;;;0.80;0.60;;;;;;;1.38;100.00;97604.84;5039641;28;20200;-80
2023/11/25 04:07:41;;;;;;;1.00;0.73;;;;;;;1.42;100.00;97608.69;5070264;28;20570;-80
2023/11/25 04:10:12;;;;;;;2.60;1.00;;;;;;;1.41;100.00;97609.69;5070907;28;20656;-81
2023/11/25 04:12:44;;;;;;;1.83;0.80;;;;;;;1.44;100.00;97619.84;5069245;28;20280;-79
2023/11/25 04:15:12;;;;;;;1.00;0.80;;;;;;;1.60;100.00;97621.19;5067336;28;20197;-79
2023/11/25 04:17:39;;;;;;;0.77;0.70;;;;;;;1.62;100.00;97614.69;5069892;28;20193;-79
2023/11/25 04:20:14;;;;;;;1.63;0.70;;;;;;;1.70;100.00;97616.25;5072371;28;20285;-80
2023/11/25 04:22:50;;;;;;;0.93;0.63;;;;;;;1.83;100.00;97620.63;5070226;28;20680;-80
2023/11/25 04:25:18;;;;;;;0.60;0.60;;;;;;;1.85;100.00;97621.25;5056511;28;20197;-78
2023/11/25 04:27:47;;;;;;;1.40;0.60;;;;;;;1.91;100.00;97623.84;5077125;28;20531;-79
2023/11/25 04:30:16;;;;;;;1.50;0.60;;;;;;;1.99;100.00;97630.69;5072368;28;20193;-80
2023/11/25 04:32:45;;;;;;;1.27;0.67;;;;;;;2.01;100.00;97632.09;5068202;28;20193;-79
2023/11/25 04:35:13;;;;;;;0.60;0.60;;;;;;;2.10;100.00;97630.03;5069445;28;20181;-82
2023/11/25 04:37:48;;;;;;;1.00;0.50;;;;;;;2.12;100.00;97634.06;5066762;28;20193;-79
2023/11/25 04:40:16;;;;;;;1.70;0.80;;;;;;;2.14;100.00;97636.50;5072261;28;20639;-79
2023/11/25 04:42:43;;;;;;;1.57;0.73;;;;;;;2.23;100.00;97637.84;5068039;28;20213;-80
2023/11/25 04:45:18;;;;;;;1.50;0.50;;;;;;;2.25;100.00;97619.13;5079109;28;20191;-81
2023/11/25 04:47:53;;;;;;;1.37;0.60;;;;;;;2.28;100.00;97635.38;5035537;28;20211;-79
2023/11/25 04:50:26;;;;;;;1.27;0.60;;;;;;;2.34;100.00;97641.63;5077884;28;20222;-79
2023/11/25 04:52:53;;;;;;;0.80;0.50;;;;;;;2.35;100.00;97633.47;5112618;28;20188;-78
2023/11/25 04:55:22;;;;;;;0.50;0.50;;;;;;;2.34;100.00;97639.78;5104846;28;20196;-79
2023/11/25 04:57:49;;;;;;;1.03;0.50;;;;;;;2.35;100.00;97677.59;5110769;28;20223;-80
2023/11/25 05:00:17;;;;;;;0.70;0.57;;;;;;;2.57;100.00;97645.28;5102258;28;20196;-80
2023/11/25 05:02:44;;;;;;;0.67;0.50;;;;;;;2.61;100.00;97662.31;5100793;28;20247;-79
2023/11/25 05:05:11;;;;;;;0.73;0.40;;;;;;;2.65;100.00;97678.59;5086241;28;20271;-81
2023/11/25 05:07:39;;;;;;;0.47;0.47;;;;;;;2.59;100.00;97651.19;5102760;28;20184;-81
2023/11/25 05:10:09;;;;;;;0.90;0.30;;;;;;;2.60;100.00;97667.84;5093610;28;20722;-79
2023/11/25 05:12:38;;;;;;;0.43;0.40;;;;;;;2.57;100.00;97665.63;5107683;28;20206;-79
2023/11/25 05:15:07;;;;;;;0.63;0.50;;;;;;;2.50;100.00;97660.41;5092423;28;20663;-79
2023/11/25 05:17:34;;;;;;;0.73;0.40;;;;;;;2.61;100.00;97675.53;5103800;28;20195;-79
2023/11/25 05:20:01;;;;;;;0.53;0.40;;;;;;;2.74;100.00;97666.72;5106204;28;20195;-80
2023/11/25 05:22:28;;;;;;;0.60;0.50;;;;;;;2.72;100.00;97662.66;5100666;28;20214;-82
2023/11/25 05:24:55;;;;;;;0.40;0.30;;;;;;;2.84;100.00;97682.09;5089282;28;20196;-79
2023/11/25 05:27:22;;;;;;;1.17;0.33;;;;;;;2.97;100.00;97682.78;5104775;28;20307;-79
2023/11/25 05:29:52;;;;;;;0.40;0.40;;;;;;;2.93;100.00;97688.72;5091802;28;20199;-79
2023/11/25 05:32:19;;;;;;;0.37;0.30;;;;;;;2.90;100.00;97692.59;5089947;28;20196;-83
2023/11/25 05:34:46;;;;;;;0.40;0.30;;;;;;;2.91;100.00;97718.03;5100835;28;20256;-79
2023/11/25 05:37:13;;;;;;;0.30;0.30;;;;;;;2.96;100.00;97712.06;5102750;28;20614;-79
2023/11/25 05:39:45;;;;;;;0.80;0.40;;;;;;;2.82;100.00;97715.88;5088074;28;20186;-79
2023/11/25 05:42:13;;;;;;;1.60;0.60;;;;;;;2.75;100.00;97720.41;5095744;28;20218;-81
2023/11/25 05:44:43;;;;;;;0.67;0.20;;;;;;;2.81;100.00;97736.22;5109109;28;20191;-82
2023/11/25 05:47:10;;;;;;;0.40;0.30;;;;;;;2.74;100.00;97724.88;5098518;28;20211;-81
2023/11/25 05:49:37;;;;;;;0.20;0.20;;;;;;;2.60;100.00;97726.81;5100994;28;20227;-80
2023/11/25 05:52:04;;;;;;;0.30;0.30;;;;;;;2.55;100.00;97744.34;5091592;28;20691;-78
2023/11/25 05:54:31;;;;;;;0.50;0.30;;;;;;;2.54;100.00;97745.38;5102464;28;20191;-81
2023/11/25 05:56:57;;;;;;;0.77;0.30;;;;;;;2.60;100.00;97747.97;5095082;28;20200;-80
2023/11/25 05:59:24;;;;;;;1.17;0.40;;;;;;;2.56;100.00;97754.72;5102100;28;20191;-80
2023/11/25 06:01:51;;;;;;;0.40;0.40;;;;;;;2.52;100.00;97761.44;5102302;28;20691;-81
2023/11/25 06:04:18;;;;;;;0.30;0.30;;;;;;;2.50;100.00;97768.78;5104835;28;20668;-80
2023/11/25 06:06:47;;;;;;;0.40;0.40;;;;;;;2.67;100.00;97766.41;5091078;28;20192;-80
2023/11/25 06:09:15;;;;;;;0.60;0.30;;;;;;;2.57;100.00;97787.22;5097321;28;20245;-83
2023/11/25 06:11:42;;;;;;;0.37;0.23;;;;;;;2.57;100.00;97789.88;5078982;28;20196;-81
2023/11/25 06:14:12;;;;;;;0.47;0.40;;;;;;;2.49;100.00;97785.66;5106174;28;20198;-81
2023/11/25 06:16:41;;;;;;;0.83;0.47;;;;;;;2.49;100.00;97793.59;5089393;28;20206;-80
2023/11/25 06:19:10;;;;;;;0.83;0.40;;;;;;;2.42;100.00;97802.59;5087399;28;20215;-82
2023/11/25 06:21:38;;;;;;;0.50;0.40;;;;;;;2.50;100.00;97802.34;5062640;28;20200;-79
2023/11/25 06:24:07;;;;;;;0.50;0.50;;;;;;;2.45;100.00;97812.72;5105972;28;20373;-80
2023/11/25 06:26:34;;;;;;;0.87;0.33;;;;;;;2.40;100.00;97815.19;5072550;28;20211;-80
2023/11/25 06:29:02;;;;;;;0.57;0.30;;;;;;;2.56;100.00;97827.94;5097404;28;20198;-80
2023/11/25 06:31:31;;;;;;;0.30;0.30;;;;;;;2.55;100.00;97831.59;5099859;28;20239;-82
2023/11/25 06:34:00;;;;;;;0.50;0.30;;;;;;;2.59;100.00;97841.53;5088796;28;20199;-80
2023/11/25 06:36:27;;;;;;;0.20;0.20;;;;;;;2.60;100.00;97845.00;5088293;28;20195;-80
2023/11/25 06:38:54;;;;;;;0.70;0.30;;;;;;;2.60;100.00;97851.09;5107220;28;20192;-80
2023/11/25 06:41:24;;;;;;;0.20;0.20;;;;;;;2.55;100.00;97848.28;5081865;28;20275;-80
2023/11/25 06:43:51;;;;;;;0.50;0.40;;;;;;;2.52;100.00;97853.97;5097413;28;20238;-78
2023/11/25 06:46:18;;;;;;;1.23;0.40;;;;;;;2.51;100.00;97855.00;5099637;28;20674;-79
2023/11/25 06:48:45;;;;;;;1.33;0.57;;;;;;;2.47;100.00;97869.63;5084965;28;20231;-79
2023/11/25 06:51:12;;;;;;;0.60;0.40;;;;;;;2.51;100.00;97868.22;5109248;28;20218;-80
2023/11/25 06:53:41;;;;;;;0.57;0.43;;;;;;;2.36;100.00;97865.03;5104788;28;20292;-81
2023/11/25 06:56:09;;;;;;;1.67;0.40;;;;;;;2.39;100.00;97887.56;5086966;28;20195;-81
2023/11/25 06:58:37;;;;;;;0.30;0.30;;;;;;;2.45;100.00;97871.69;5091624;28;20241;-80
2023/11/25 07:01:04;;;;;;;1.23;0.60;;;;;;;2.46;100.00;97888.38;5112065;28;20195;-81
2023/11/25 07:03:31;;;;;;;0.67;0.40;;;;;;;2.40;100.00;97894.50;5109711;28;20238;-81
2023/11/25 07:05:58;;;;;;;0.53;0.30;;;;;;;2.37;100.00;97894.91;5087475;28;20203;-80
2023/11/25 07:08:25;;;;;;;0.60;0.40;;;;;;;2.36;100.00;97896.75;5098796;28;20253;-81
2023/11/25 07:10:54;;;;;;;1.43;0.30;;;;;;;2.46;100.00;97906.88;5097515;28;20192;-80
2023/11/25 07:13:23;;;;;;;0.73;0.40;;;;;;;2.52;100.00;97919.25;5101119;28;20203;-80
2023/11/25 07:15:49;;;;;;;0.40;0.40;;;;;;;2.36;100.00;97909.97;5092396;28;20208;-80
2023/11/25 07:18:18;;;;;;;0.97;0.50;;;;;;;2.46;100.00;97926.19;5078080;28;20269;-80
2023/11/25 07:20:46;;;;;;;0.27;0.27;;;;;;;2.38;100.00;97930.91;5092214;28;20656;-80
2023/11/25 07:23:18;;;;;;;1.10;0.30;;;;;;;2.42;100.00;97935.56;5092851;28;20299;-82
2023/11/25 07:25:45;;;;;;;0.30;0.30;;;;;;;2.48;100.00;97961.16;5084987;28;20196;-80
2023/11/25 07:28:13;;;;;;;1.07;0.40;;;;;;;2.48;100.00;97952.41;5097873;28;20184;-80
2023/11/25 07:30:41;;;;;;;0.97;0.40;;;;;;;2.52;100.00;97961.56;5094942;28;20184;-80
2023/11/25 07:33:13;;;;;;;0.40;0.40;;;;;;;2.64;100.00;97979.19;5096568;28;20213;-80
2023/11/25 07:35:43;;;;;;;0.50;0.40;;;;;;;2.76;100.00;97967.94;5103429;28;20199;-80
2023/11/25 07:38:13;;;;;;;1.40;0.33;;;;;;;2.63;100.00;97985.50;5107418;28;20188;-83
2023/11/25 07:40:42;;;;;;;0.43;0.20;;;;;;;2.64;100.00;97992.44;5106538;28;20199;-83
2023/11/25 07:43:18;;;;;;;0.63;0.40;;;;;;;2.66;100.00;97998.31;5089500;28;20285;-80
2023/11/25 07:45:48;;;;;;;1.73;0.40;;;;;;;2.58;100.00;97995.06;5077057;28;20275;-79
2023/11/25 07:48:15;;;;;;;0.40;0.30;;;;;;;2.52;100.00;97996.72;5080994;28;20201;-81
2023/11/25 07:50:45;;;;;;;0.30;0.30;;;;;;;2.42;100.00;97992.91;5111100;28;20188;-79
2023/11/25 07:53:25;;;;;;;0.77;0.30;;;;;;;2.29;100.00;98008.78;5088323;28;20195;-79
2023/11/25 07:55:55;;;;;;;0.77;0.40;;;;;;;2.12;100.00;98019.78;5114863;28;20191;-80
2023/11/25 07:58:29;;;;;;;0.83;0.40;;;;;;;2.10;100.00;98019.16;5094505;28;20660;-78
2023/11/25 08:00:58;;;;;;;1.07;0.30;;;;;;;1.99;100.00;98026.91;5101111;28;20306;-80
2023/11/25 08:03:25;;;;;;;0.40;0.30;;;;;;;1.88;100.00;98017.75;5102809;28;20216;-80
2023/11/25 08:05:58;;;;;;;0.90;0.40;;;;;;;1.89;100.00;98034.41;5110687;28;20278;-79
2023/11/25 08:08:25;;;;;;;1.17;0.37;;;;;;;1.85;100.00;98030.56;5094673;28;20194;-80
2023/11/25 08:10:52;;;;;;;0.60;0.30;;;;;;;2.00;100.00;98032.00;5107053;28;20207;-79
2023/11/25 08:13:21;;;;;;;0.30;0.20;;;;;;;1.92;100.00;98045.38;5104304;28;20196;-80
2023/11/25 08:15:51;;;;;;;0.40;0.40;;;;;;;1.99;100.00;98055.94;5096929;28;20185;-81
2023/11/25 08:18:18;;;;;;;0.67;0.30;;;;;;;2.08;100.00;98044.97;5096308;28;20198;-84
2023/11/25 08:20:46;;;;;;;1.57;0.30;;;;;;;2.16;100.00;98041.31;5097157;28;20188;-78
2023/11/25 08:23:13;;;;;;;1.33;0.30;;;;;;;2.15;100.00;98053.69;5100646;28;20288;-80
2023/11/25 08:25:42;;;;;;;0.37;0.20;;;;;;;2.14;100.00;98044.19;5105994;28;20192;-80
2023/11/25 08:28:09;;;;;;;0.60;0.30;;;;;;;2.27;100.00;98047.81;5084233;28;20217;-81
2023/11/25 08:30:40;;;;;;;1.47;0.33;;;;;;;2.32;100.00;98064.69;5100039;28;20194;-82
2023/11/25 08:33:13;;;;;;;1.07;0.50;;;;;;;2.36;100.00;98038.66;5102332;28;20193;-78
2023/11/25 08:35:41;;;;;;;0.80;0.30;;;;;;;2.47;100.00;98049.41;5066236;28;20181;-81
2023/11/25 08:38:10;;;;;;;0.30;0.20;;;;;;;2.48;100.00;98066.06;5104630;28;20184;-80
2023/11/25 08:40:40;;;;;;;0.20;0.20;;;;;;;2.59;100.00;98057.53;5108668;28;20278;-79
2023/11/25 08:43:12;;;;;;;0.57;0.37;;;;;;;2.55;100.00;98062.41;5058969;28;20217;-81
2023/11/25 08:45:40;;;;;;;0.60;0.30;;;;;;;2.59;100.00;98058.34;5102715;28;20255;-79
2023/11/25 08:48:10;;;;;;;1.20;0.30;;;;;;;2.67;100.00;98073.97;5092237;28;20187;-80
2023/11/25 08:50:37;;;;;;;0.80;0.60;;;;;;;2.72;100.00;98073.34;5091237;28;20208;-80
2023/11/25 08:53:18;;;;;;;1.93;0.80;;;;;;;2.76;100.00;98061.34;5100727;28;20211;-80
2023/11/25 08:55:45;;;;;;;1.57;0.50;;;;;;;2.88;100.00;98072.09;5096722;28;20196;-80
2023/11/25 08:58:12;;;;;;;0.80;0.40;;;;;;;2.98;100.00;98070.66;5103441;28;20194;-79
2023/11/25 09:00:43;;;;;;;0.33;0.33;;;;;;;3.16;100.00;98066.50;5094912;28;20187;-80
2023/11/25 09:03:11;;;;;;;1.13;0.37;;;;;;;3.21;100.00;98085.22;5107409;28;20223;-80
2023/11/25 09:05:40;;;;;;;0.73;0.40;;;;;;;3.21;100.00;98078.09;5096130;28;20230;-81
2023/11/25 09:08:10;;;;;;;0.60;0.40;;;;;;;3.26;100.00;98083.56;5106180;28;20295;-82
2023/11/25 09:10:42;;;;;;;0.73;0.40;;;;;;;3.40;100.00;98079.03;5102361;28;20192;-81
2023/11/25 09:13:10;;;;;;;1.00;0.77;;;;;;;3.49;100.00;98083.03;5080158;28;20607;-80
2023/11/25 09:15:38;;;;;;;1.60;0.60;;;;;;;3.47;100.00;98088.53;5098264;28;20226;-80
2023/11/25 09:18:08;;;;;;;1.97;1.37;;;;;;;3.62;100.00;98087.44;5096369;28;20200;-80
2023/11/25 09:20:36;;;;;;;0.97;0.40;;;;;;;3.85;100.00;98067.34;5088496;28;20669;-79
2023/11/25 09:23:06;;;;;;;0.87;0.50;;;;;;;4.01;100.00;98076.63;5098125;28;20200;-81
2023/11/25 09:25:33;;;;;;;0.50;0.40;;;;;;;4.13;100.00;98077.53;5096113;28;20202;-80
2023/11/25 09:28:03;;;;;;;0.97;0.50;;;;;;;4.28;100.00;98090.47;5102872;28;20196;-80
2023/11/25 09:30:30;;;;;;;1.77;0.40;;;;;;;4.27;100.00;98091.47;5099782;28;20212;-83
2023/11/25 09:32:58;;;;;;;0.37;0.30;;;;;;;4.16;100.00;98098.28;5088816;28;20211;-81
2023/11/25 09:35:25;;;;;;;0.70;0.40;;;;;;;4.16;100.00;98102.78;5077110;28;20188;-81
2023/11/25 09:37:52;;;;;;;0.50;0.40;;;;;;;4.10;100.00;98104.47;5095223;28;20215;-80
2023/11/25 09:40:28;;;;;;;1.70;0.40;;;;;;;4.20;100.00;98114.59;5098023;28;20200;-82
2023/11/25 09:42:57;;;;;;;0.50;0.50;;;;;;;4.04;100.00;98101.84;5096327;28;20212;-78
2023/11/25 09:45:34;;;;;;;1.87;0.40;;;;;;;4.19;100.00;98121.72;5096643;28;20211;-80
2023/11/25 09:48:03;;;;;;;1.80;0.40;;;;;;;3.79;100.00;98118.50;5059857;28;20192;-82
2023/11/25 09:50:34;;;;;;;1.90;0.60;;;;;;;4.07;100.00;98128.72;5098165;28;20188;-84
2023/11/25 09:53:10;;;;;;;1.37;0.60;;;;;;;4.08;100.00;98135.66;5089984;28;20200;-80
2023/11/25 09:55:37;;;;;;;0.80;0.53;;;;;;;3.81;100.00;98132.38;5091215;28;20192;-81
2023/11/25 09:58:08;;;;;;;0.77;0.50;;;;;;;3.62;100.00;98129.81;5098675;28;20278;-79
2023/11/25 10:00:38;;;;;;;0.73;0.40;;;;;;;3.33;100.00;98123.22;5109168;28;20196;-82
2023/11/25 10:03:10;;;;;;;1.03;0.50;;;;;;;3.61;100.00;98117.59;5100282;28;20222;-80
2023/11/25 10:05:40;;;;;;;1.60;0.77;;;;;;;3.77;100.00;98109.16;5107016;28;20219;-81
2023/11/25 10:08:09;;;;;;;0.60;0.50;;;;;;;3.82;100.00;98104.03;5106396;28;20188;-80
2023/11/25 10:10:38;;;;;;;1.37;0.63;;;;;;;4.04;100.00;98093.91;5091855;28;20184;-82
2023/11/25 10:13:14;;;;;;;0.63;0.53;;;;;;;4.06;100.00;98095.28;5092316;28;20669;-80
2023/11/25 10:15:46;;;;;;;1.67;0.80;;;;;;;3.70;100.00;98080.06;5099654;28;20191;-81
2023/11/25 10:18:13;;;;;;;1.87;0.80;;;;;;;3.68;100.00;98062.78;5098240;28;20675;-80
2023/11/25 10:20:47;;;;;;;1.10;0.77;;;;;;;3.54;100.00;98072.63;5098224;28;20188;-81
2023/11/25 10:23:23;;;;;;;3.47;0.60;;;;;;;3.53;100.00;98071.00;5089918;28;20201;-80
2023/11/25 10:25:51;;;;;;;1.83;0.90;;;;;;;3.30;100.00;98060.13;5099808;28;20191;-80
2023/11/25 10:28:30;;;;;;;1.87;0.57;;;;;;;3.30;100.00;98060.13;5100135;28;20279;-81
2023/11/25 10:30:59;;;;;;;2.10;0.80;;;;;;;3.34;100.00;98058.69;5101370;28;20206;-79
2023/11/25 10:33:27;;;;;;;1.10;0.70;;;;;;;3.47;100.00;98056.78;5098481;28;20188;-80
2023/11/25 10:35:55;;;;;;;0.60;0.60;;;;;;;3.35;100.00;98055.00;5068979;28;20213;-80
2023/11/25 10:38:27;;;;;;;0.97;0.40;;;;;;;3.42;100.00;98069.84;5091334;28;20180;-81
2023/11/25 10:41:06;;;;;;;0.47;0.43;;;;;;;3.58;100.00;98073.81;5091915;28;20188;-79
2023/11/25 10:43:33;;;;;;;0.80;0.70;;;;;;;3.79;100.00;98070.84;5101373;28;20204;-82
2023/11/25 10:46:06;;;;;;;0.93;0.50;;;;;;;4.01;100.00;98065.19;5096951;28;20184;-80
2023/11/25 10:48:34;;;;;;;2.00;0.60;;;;;;;4.16;100.00;98066.47;5091193;28;20235;-80
2023/11/25 10:51:03;;;;;;;1.47;0.60;;;;;;;4.35;100.00;98067.34;5102880;28;20192;-80
2023/11/25 10:53:30;;;;;;;0.77;0.40;;;;;;;4.08;100.00;98066.75;5097320;27;20188;-80
2023/11/25 10:56:01;;;;;;;0.73;0.67;;;;;;;3.81;100.00;98062.69;5098260;28;20196;-80
2023/11/25 10:58:31;;;;;;;0.70;0.60;;;;;;;3.77;100.00;98056.19;5093182;28;20196;-80
2023/11/25 11:01:01;;;;;;;1.53;0.53;;;;;;;3.73;100.00;98055.81;5091917;28;20285;-80
2023/11/25 11:03:53;;;;;;;0.70;0.70;;;;;;;3.65;100.00;98061.34;5096621;28;20697;-80
2023/11/25 11:06:26;;;;;;;0.80;0.40;;;;;;;3.84;100.00;98063.06;5097367;28;20192;-79
2023/11/25 11:08:59;;;;;;;1.67;0.60;;;;;;;3.88;100.00;98064.25;5092419;28;20276;-78
2023/11/25 11:11:33;;;;;;;0.83;0.53;;;;;;;3.81;100.00;98058.19;5066700;28;20645;-80
2023/11/25 11:14:08;;;;;;;0.60;0.60;;;;;;;3.80;100.00;98061.06;5103449;28;20194;-79
2023/11/25 11:16:54;;;;;;;0.67;0.60;;;;;;;3.73;100.00;98055.81;5067225;28;20291;-81
2023/11/25 11:19:39;;;;;;;0.83;0.70;;;;;;;3.63;100.00;98057.31;5090943;28;20275;-79
2023/11/25 11:22:13;;;;;;;0.83;0.60;;;;;;;3.43;100.00;98066.16;5088796;28;20192;-81
2023/11/25 11:24:48;;;;;;;0.80;0.60;;;;;;;3.20;100.00;98057.13;5096963;28;20234;-81
2023/11/25 11:27:35;;;;;;;2.27;1.23;;;;;;;3.15;100.00;98059.56;5099777;28;20210;-81
2023/11/25 11:30:11;;;;;;;1.83;1.13;;;;;;;3.11;100.00;98056.53;5102246;28;20286;-81
2023/11/25 11:32:39;;;;;;;2.20;1.53;;;;;;;3.06;100.00;98059.00;5086676;28;20283;-79
2023/11/25 11:35:12;;;;;;;1.40;1.00;;;;;;;3.11;100.00;98053.91;5096788;28;20253;-79
2023/11/25 11:37:49;;;;;;;1.27;0.90;;;;;;;3.45;100.00;98045.56;5104753;28;20199;-79
2023/11/25 11:40:22;;;;;;;1.47;1.20;;;;;;;3.70;100.00;98045.63;5087014;28;20198;-78
2023/11/25 11:42:55;;;;;;;1.63;0.90;;;;;;;3.94;100.00;98052.78;5098020;28;20231;-81